sensor_id;sensor_type;location;lat;lon;timestamp;P1;durP1;ratioP1;P2;durP2;ratioP2
25846;SDS011;13676;50.168;8.568;2023-01-01T00:01:04;96.10;;;58.30;;
25846;SDS011;13676;50.168;8.568;2023-01-01T00:03:30;85.47;;;56.28;;
25846;SDS011;13676;50.168;8.568;2023-01-01T00:05:55;88.20;;;59.28;;
25846;SDS011;13676;50.168;8.568;2023-01-01T00:08:21;88.38;;;56.97;;
25846;SDS011;13676;50.168;8.568;2023-01-01T00:10:46;82.68;;;51.95;;
25846;SDS011;13676;50.168;8.568;2023-01-01T00:13:12;81.75;;;50.65;;
25846;SDS011;13676;50.168;8.568;2023-01-01T00:15:38;78.93;;;52.75;;
25846;SDS011;13676;50.168;8.568;2023-01-01T00:18:03;85.15;;;52.25;;
25846;SDS011;13676;50.168;8.568;2023-01-01T00:20:28;68.60;;;45.95;;
25846;SDS011;13676;50.168;8.568;2023-01-01T00:22:54;81.97;;;51.28;;
25846;SDS011;13676;50.168;8.568;2023-01-01T00:25:19;75.93;;;47.67;;
25846;SDS011;13676;50.168;8.568;2023-01-01T00:27:44;60.97;;;40.42;;
25846;SDS011;13676;50.168;8.568;2023-01-01T00:30:10;76.35;;;51.28;;
25846;SDS011;13676;50.168;8.568;2023-01-01T00:32:36;66.22;;;45.60;;
25846;SDS011;13676;50.168;8.568;2023-01-01T00:35:01;62.90;;;41.45;;
25846;SDS011;13676;50.168;8.568;2023-01-01T00:37:27;60.42;;;41.50;;
25846;SDS011;13676;50.168;8.568;2023-01-01T00:39:52;55.25;;;37.80;;
25846;SDS011;13676;50.168;8.568;2023-01-01T00:42:18;54.80;;;39.30;;
25846;SDS011;13676;50.168;8.568;2023-01-01T00:44:43;61.47;;;40.92;;
25846;SDS011;13676;50.168;8.568;2023-01-01T00:47:08;60.65;;;41.35;;
25846;SDS011;13676;50.168;8.568;2023-01-01T00:49:34;63.75;;;42.13;;
25846;SDS011;13676;50.168;8.568;2023-01-01T00:51:59;63.25;;;43.13;;
25846;SDS011;13676;50.168;8.568;2023-01-01T00:54:24;113.45;;;72.15;;
25846;SDS011;13676;50.168;8.568;2023-01-01T00:56:50;110.85;;;66.75;;
25846;SDS011;13676;50.168;8.568;2023-01-01T00:59:15;103.18;;;61.25;;
25846;SDS011;13676;50.168;8.568;2023-01-01T01:01:40;99.80;;;58.80;;
25846;SDS011;13676;50.168;8.568;2023-01-01T01:04:05;78.63;;;48.55;;
25846;SDS011;13676;50.168;8.568;2023-01-01T01:06:33;68.60;;;42.85;;
25846;SDS011;13676;50.168;8.568;2023-01-01T01:08:58;59.83;;;40.10;;
25846;SDS011;13676;50.168;8.568;2023-01-01T01:11:24;55.00;;;36.50;;
25846;SDS011;13676;50.168;8.568;2023-01-01T01:13:51;51.28;;;33.92;;
25846;SDS011;13676;50.168;8.568;2023-01-01T01:16:19;48.35;;;33.05;;
25846;SDS011;13676;50.168;8.568;2023-01-01T01:18:46;42.72;;;29.60;;
25846;SDS011;13676;50.168;8.568;2023-01-01T01:21:15;42.63;;;29.75;;
25846;SDS011;13676;50.168;8.568;2023-01-01T01:23:42;40.47;;;27.20;;
25846;SDS011;13676;50.168;8.568;2023-01-01T01:26:14;40.72;;;27.83;;
25846;SDS011;13676;50.168;8.568;2023-01-01T01:28:41;41.42;;;27.40;;
25846;SDS011;13676;50.168;8.568;2023-01-01T01:31:07;43.28;;;27.98;;
25846;SDS011;13676;50.168;8.568;2023-01-01T01:33:33;44.15;;;28.23;;
25846;SDS011;13676;50.168;8.568;2023-01-01T01:35:59;41.28;;;27.65;;
25846;SDS011;13676;50.168;8.568;2023-01-01T01:38:28;40.17;;;26.25;;
25846;SDS011;13676;50.168;8.568;2023-01-01T01:40:53;50.25;;;33.80;;
25846;SDS011;13676;50.168;8.568;2023-01-01T01:45:49;40.83;;;27.48;;
25846;SDS011;13676;50.168;8.568;2023-01-01T01:48:18;41.60;;;27.38;;
25846;SDS011;13676;50.168;8.568;2023-01-01T01:50:44;41.05;;;27.70;;
25846;SDS011;13676;50.168;8.568;2023-01-01T01:53:30;37.08;;;25.13;;
25846;SDS011;13676;50.168;8.568;2023-01-01T01:56:02;35.70;;;25.02;;
25846;SDS011;13676;50.168;8.568;2023-01-01T01:58:30;40.60;;;26.70;;
25846;SDS011;13676;50.168;8.568;2023-01-01T02:00:57;41.33;;;27.13;;
25846;SDS011;13676;50.168;8.568;2023-01-01T02:03:26;36.17;;;25.38;;
25846;SDS011;13676;50.168;8.568;2023-01-01T02:06:11;47.50;;;29.67;;
25846;SDS011;13676;50.168;8.568;2023-01-01T02:08:37;51.53;;;33.70;;
25846;SDS011;13676;50.168;8.568;2023-01-01T02:11:02;50.35;;;31.00;;
25846;SDS011;13676;50.168;8.568;2023-01-01T02:13:28;40.13;;;26.92;;
25846;SDS011;13676;50.168;8.568;2023-01-01T02:15:54;36.75;;;25.40;;
25846;SDS011;13676;50.168;8.568;2023-01-01T02:18:24;32.10;;;21.73;;
25846;SDS011;13676;50.168;8.568;2023-01-01T02:20:59;42.30;;;24.80;;
25846;SDS011;13676;50.168;8.568;2023-01-01T02:23:30;33.85;;;22.02;;
25846;SDS011;13676;50.168;8.568;2023-01-01T02:29:12;22.10;;;16.73;;
25846;SDS011;13676;50.168;8.568;2023-01-01T02:31:45;19.27;;;14.90;;
25846;SDS011;13676;50.168;8.568;2023-01-01T02:34:14;28.40;;;16.23;;
25846;SDS011;13676;50.168;8.568;2023-01-01T02:36:47;25.00;;;16.73;;
25846;SDS011;13676;50.168;8.568;2023-01-01T02:39:14;26.75;;;17.08;;
25846;SDS011;13676;50.168;8.568;2023-01-01T02:41:45;23.88;;;16.33;;
25846;SDS011;13676;50.168;8.568;2023-01-01T02:44:12;21.17;;;12.90;;
25846;SDS011;13676;50.168;8.568;2023-01-01T02:46:38;20.55;;;14.60;;
25846;SDS011;13676;50.168;8.568;2023-01-01T02:49:03;22.95;;;13.52;;
25846;SDS011;13676;50.168;8.568;2023-01-01T02:51:53;15.70;;;11.05;;
25846;SDS011;13676;50.168;8.568;2023-01-01T02:57:22;21.65;;;12.57;;
25846;SDS011;13676;50.168;8.568;2023-01-01T03:10:41;24.40;;;12.93;;
25846;SDS011;13676;50.168;8.568;2023-01-01T03:13:12;17.08;;;11.75;;
25846;SDS011;13676;50.168;8.568;2023-01-01T03:21:08;21.88;;;14.45;;
25846;SDS011;13676;50.168;8.568;2023-01-01T03:23:36;19.85;;;12.95;;
25846;SDS011;13676;50.168;8.568;2023-01-01T03:26:10;20.13;;;13.52;;
25846;SDS011;13676;50.168;8.568;2023-01-01T03:28:39;34.10;;;22.55;;
25846;SDS011;13676;50.168;8.568;2023-01-01T03:31:09;26.42;;;18.58;;
25846;SDS011;13676;50.168;8.568;2023-01-01T03:33:40;24.42;;;15.57;;
25846;SDS011;13676;50.168;8.568;2023-01-01T03:36:10;27.38;;;15.98;;
25846;SDS011;13676;50.168;8.568;2023-01-01T03:38:59;25.13;;;15.55;;
25846;SDS011;13676;50.168;8.568;2023-01-01T03:41:43;17.98;;;14.02;;
25846;SDS011;13676;50.168;8.568;2023-01-01T03:47:09;24.02;;;14.23;;
25846;SDS011;13676;50.168;8.568;2023-01-01T03:49:35;20.73;;;14.40;;
25846;SDS011;13676;50.168;8.568;2023-01-01T03:57:48;22.27;;;15.63;;
25846;SDS011;13676;50.168;8.568;2023-01-01T04:00:16;21.55;;;14.55;;
25846;SDS011;13676;50.168;8.568;2023-01-01T04:05:16;18.83;;;13.50;;
25846;SDS011;13676;50.168;8.568;2023-01-01T04:07:43;17.75;;;12.40;;
25846;SDS011;13676;50.168;8.568;2023-01-01T04:10:08;22.33;;;13.20;;
25846;SDS011;13676;50.168;8.568;2023-01-01T04:12:50;20.60;;;13.52;;
25846;SDS011;13676;50.168;8.568;2023-01-01T04:15:16;16.95;;;12.15;;
25846;SDS011;13676;50.168;8.568;2023-01-01T04:17:43;21.17;;;12.80;;
25846;SDS011;13676;50.168;8.568;2023-01-01T04:20:09;17.05;;;11.80;;
25846;SDS011;13676;50.168;8.568;2023-01-01T04:22:35;18.10;;;12.15;;
25846;SDS011;13676;50.168;8.568;2023-01-01T04:25:00;20.63;;;14.02;;
25846;SDS011;13676;50.168;8.568;2023-01-01T04:27:26;23.85;;;14.07;;
25846;SDS011;13676;50.168;8.568;2023-01-01T04:29:51;23.13;;;14.98;;
25846;SDS011;13676;50.168;8.568;2023-01-01T04:32:17;25.45;;;16.08;;
25846;SDS011;13676;50.168;8.568;2023-01-01T04:34:42;26.55;;;16.95;;
25846;SDS011;13676;50.168;8.568;2023-01-01T04:37:07;30.85;;;18.92;;
25846;SDS011;13676;50.168;8.568;2023-01-01T04:39:33;27.70;;;19.48;;
25846;SDS011;13676;50.168;8.568;2023-01-01T04:41:58;26.48;;;17.58;;
25846;SDS011;13676;50.168;8.568;2023-01-01T04:44:23;25.27;;;16.52;;
25846;SDS011;13676;50.168;8.568;2023-01-01T04:46:48;24.00;;;14.55;;
25846;SDS011;13676;50.168;8.568;2023-01-01T04:49:14;26.35;;;17.25;;
25846;SDS011;13676;50.168;8.568;2023-01-01T04:51:39;25.52;;;17.17;;
25846;SDS011;13676;50.168;8.568;2023-01-01T04:54:04;29.35;;;19.55;;
25846;SDS011;13676;50.168;8.568;2023-01-01T04:56:30;25.65;;;17.80;;
25846;SDS011;13676;50.168;8.568;2023-01-01T04:58:55;26.80;;;17.92;;
25846;SDS011;13676;50.168;8.568;2023-01-01T05:01:23;26.90;;;15.93;;
25846;SDS011;13676;50.168;8.568;2023-01-01T05:03:50;22.40;;;14.80;;
25846;SDS011;13676;50.168;8.568;2023-01-01T05:06:15;19.25;;;13.70;;
25846;SDS011;13676;50.168;8.568;2023-01-01T05:08:42;20.33;;;13.45;;
25846;SDS011;13676;50.168;8.568;2023-01-01T05:11:10;19.02;;;13.43;;
25846;SDS011;13676;50.168;8.568;2023-01-01T05:13:40;17.92;;;12.88;;
25846;SDS011;13676;50.168;8.568;2023-01-01T05:16:11;24.17;;;15.00;;
25846;SDS011;13676;50.168;8.568;2023-01-01T05:18:38;22.13;;;14.52;;
25846;SDS011;13676;50.168;8.568;2023-01-01T05:21:04;23.45;;;14.13;;
25846;SDS011;13676;50.168;8.568;2023-01-01T05:23:32;22.17;;;14.50;;
25846;SDS011;13676;50.168;8.568;2023-01-01T05:25:57;23.77;;;14.73;;
25846;SDS011;13676;50.168;8.568;2023-01-01T05:28:23;23.95;;;14.05;;
25846;SDS011;13676;50.168;8.568;2023-01-01T05:30:49;21.75;;;13.82;;
25846;SDS011;13676;50.168;8.568;2023-01-01T05:33:14;23.85;;;15.93;;
25846;SDS011;13676;50.168;8.568;2023-01-01T05:35:40;20.48;;;13.70;;
25846;SDS011;13676;50.168;8.568;2023-01-01T05:38:05;23.13;;;13.02;;
25846;SDS011;13676;50.168;8.568;2023-01-01T05:40:30;21.52;;;13.35;;
25846;SDS011;13676;50.168;8.568;2023-01-01T05:42:56;18.80;;;12.40;;
25846;SDS011;13676;50.168;8.568;2023-01-01T05:45:21;19.13;;;13.70;;
25846;SDS011;13676;50.168;8.568;2023-01-01T05:47:46;22.08;;;14.38;;
25846;SDS011;13676;50.168;8.568;2023-01-01T05:50:12;17.73;;;12.43;;
25846;SDS011;13676;50.168;8.568;2023-01-01T05:52:37;17.88;;;11.93;;
25846;SDS011;13676;50.168;8.568;2023-01-01T05:55:02;18.95;;;12.32;;
25846;SDS011;13676;50.168;8.568;2023-01-01T05:57:28;15.27;;;11.02;;
25846;SDS011;13676;50.168;8.568;2023-01-01T05:59:53;13.45;;;9.20;;
25846;SDS011;13676;50.168;8.568;2023-01-01T06:02:19;18.08;;;10.57;;
25846;SDS011;13676;50.168;8.568;2023-01-01T06:04:44;11.82;;;8.82;;
25846;SDS011;13676;50.168;8.568;2023-01-01T06:07:09;15.45;;;11.02;;
25846;SDS011;13676;50.168;8.568;2023-01-01T06:09:34;15.07;;;10.82;;
25846;SDS011;13676;50.168;8.568;2023-01-01T06:12:00;13.32;;;9.77;;
25846;SDS011;13676;50.168;8.568;2023-01-01T06:14:25;12.88;;;9.45;;
25846;SDS011;13676;50.168;8.568;2023-01-01T06:16:50;16.35;;;10.48;;
25846;SDS011;13676;50.168;8.568;2023-01-01T06:19:16;18.08;;;11.32;;
25846;SDS011;13676;50.168;8.568;2023-01-01T06:21:41;20.30;;;12.50;;
25846;SDS011;13676;50.168;8.568;2023-01-01T06:24:06;15.40;;;10.63;;
25846;SDS011;13676;50.168;8.568;2023-01-01T06:26:32;20.00;;;13.13;;
25846;SDS011;13676;50.168;8.568;2023-01-01T06:28:58;19.33;;;11.45;;
25846;SDS011;13676;50.168;8.568;2023-01-01T06:31:25;15.68;;;10.02;;
25846;SDS011;13676;50.168;8.568;2023-01-01T06:33:51;17.27;;;11.23;;
25846;SDS011;13676;50.168;8.568;2023-01-01T06:36:18;14.63;;;9.27;;
25846;SDS011;13676;50.168;8.568;2023-01-01T06:38:45;13.90;;;8.73;;
25846;SDS011;13676;50.168;8.568;2023-01-01T06:43:38;15.32;;;9.00;;
25846;SDS011;13676;50.168;8.568;2023-01-01T06:46:08;16.02;;;8.63;;
25846;SDS011;13676;50.168;8.568;2023-01-01T06:48:38;11.50;;;7.53;;
25846;SDS011;13676;50.168;8.568;2023-01-01T06:51:04;14.20;;;8.18;;
25846;SDS011;13676;50.168;8.568;2023-01-01T06:53:30;18.53;;;9.37;;
25846;SDS011;13676;50.168;8.568;2023-01-01T06:55:55;11.90;;;8.57;;
25846;SDS011;13676;50.168;8.568;2023-01-01T06:58:21;13.52;;;8.43;;
25846;SDS011;13676;50.168;8.568;2023-01-01T07:00:46;12.07;;;7.50;;
25846;SDS011;13676;50.168;8.568;2023-01-01T07:03:11;12.90;;;8.07;;
25846;SDS011;13676;50.168;8.568;2023-01-01T07:05:37;11.43;;;7.72;;
25846;SDS011;13676;50.168;8.568;2023-01-01T07:08:02;20.23;;;9.82;;
25846;SDS011;13676;50.168;8.568;2023-01-01T07:10:27;12.82;;;8.43;;
25846;SDS011;13676;50.168;8.568;2023-01-01T07:12:53;14.98;;;8.80;;
25846;SDS011;13676;50.168;8.568;2023-01-01T07:15:18;15.15;;;8.93;;
25846;SDS011;13676;50.168;8.568;2023-01-01T07:17:43;17.33;;;9.80;;
25846;SDS011;13676;50.168;8.568;2023-01-01T07:20:09;16.30;;;10.82;;
25846;SDS011;13676;50.168;8.568;2023-01-01T07:22:35;15.95;;;9.50;;
25846;SDS011;13676;50.168;8.568;2023-01-01T07:25:01;15.27;;;9.07;;
25846;SDS011;13676;50.168;8.568;2023-01-01T07:27:27;19.27;;;11.18;;
25846;SDS011;13676;50.168;8.568;2023-01-01T07:29:52;14.43;;;9.35;;
25846;SDS011;13676;50.168;8.568;2023-01-01T07:32:17;14.43;;;9.20;;
25846;SDS011;13676;50.168;8.568;2023-01-01T07:34:43;16.23;;;9.18;;
25846;SDS011;13676;50.168;8.568;2023-01-01T07:37:08;15.25;;;9.13;;
25846;SDS011;13676;50.168;8.568;2023-01-01T07:39:33;16.00;;;9.20;;
25846;SDS011;13676;50.168;8.568;2023-01-01T07:41:59;14.13;;;8.80;;
25846;SDS011;13676;50.168;8.568;2023-01-01T07:44:24;16.55;;;9.43;;
25846;SDS011;13676;50.168;8.568;2023-01-01T07:46:49;17.90;;;10.20;;
25846;SDS011;13676;50.168;8.568;2023-01-01T07:49:15;18.30;;;9.98;;
25846;SDS011;13676;50.168;8.568;2023-01-01T07:51:40;17.48;;;9.90;;
25846;SDS011;13676;50.168;8.568;2023-01-01T07:54:05;16.08;;;9.63;;
25846;SDS011;13676;50.168;8.568;2023-01-01T07:56:31;16.00;;;9.55;;
25846;SDS011;13676;50.168;8.568;2023-01-01T07:58:58;16.63;;;9.35;;
25846;SDS011;13676;50.168;8.568;2023-01-01T08:01:23;14.13;;;8.88;;
25846;SDS011;13676;50.168;8.568;2023-01-01T08:03:51;15.40;;;9.13;;
25846;SDS011;13676;50.168;8.568;2023-01-01T08:06:17;16.23;;;8.85;;
25846;SDS011;13676;50.168;8.568;2023-01-01T08:08:42;17.45;;;9.35;;
25846;SDS011;13676;50.168;8.568;2023-01-01T08:11:08;14.80;;;8.50;;
25846;SDS011;13676;50.168;8.568;2023-01-01T08:13:33;16.75;;;8.55;;
25846;SDS011;13676;50.168;8.568;2023-01-01T08:15:58;15.27;;;8.00;;
25846;SDS011;13676;50.168;8.568;2023-01-01T08:18:24;15.02;;;8.07;;
25846;SDS011;13676;50.168;8.568;2023-01-01T08:20:49;16.83;;;9.15;;
25846;SDS011;13676;50.168;8.568;2023-01-01T08:23:15;13.25;;;7.85;;
25846;SDS011;13676;50.168;8.568;2023-01-01T08:25:40;11.18;;;7.10;;
25846;SDS011;13676;50.168;8.568;2023-01-01T08:28:05;8.23;;;5.85;;
25846;SDS011;13676;50.168;8.568;2023-01-01T08:30:31;8.20;;;5.68;;
25846;SDS011;13676;50.168;8.568;2023-01-01T08:32:56;9.02;;;5.72;;
25846;SDS011;13676;50.168;8.568;2023-01-01T08:35:21;7.85;;;4.85;;
25846;SDS011;13676;50.168;8.568;2023-01-01T08:37:46;9.23;;;5.53;;
25846;SDS011;13676;50.168;8.568;2023-01-01T08:40:12;8.88;;;5.40;;
25846;SDS011;13676;50.168;8.568;2023-01-01T08:42:38;7.72;;;5.03;;
25846;SDS011;13676;50.168;8.568;2023-01-01T08:45:03;7.50;;;5.32;;
25846;SDS011;13676;50.168;8.568;2023-01-01T08:47:29;8.73;;;6.18;;
25846;SDS011;13676;50.168;8.568;2023-01-01T08:49:54;9.93;;;6.30;;
25846;SDS011;13676;50.168;8.568;2023-01-01T08:52:20;10.48;;;6.88;;
25846;SDS011;13676;50.168;8.568;2023-01-01T08:54:46;9.10;;;6.18;;
25846;SDS011;13676;50.168;8.568;2023-01-01T08:57:11;9.23;;;6.13;;
25846;SDS011;13676;50.168;8.568;2023-01-01T08:59:36;10.15;;;6.57;;
25846;SDS011;13676;50.168;8.568;2023-01-01T09:02:02;13.30;;;6.50;;
25846;SDS011;13676;50.168;8.568;2023-01-01T09:04:28;12.30;;;7.63;;
25846;SDS011;13676;50.168;8.568;2023-01-01T09:06:54;11.10;;;5.97;;
25846;SDS011;13676;50.168;8.568;2023-01-01T09:09:19;9.52;;;6.13;;
25846;SDS011;13676;50.168;8.568;2023-01-01T09:11:51;13.55;;;6.03;;
25846;SDS011;13676;50.168;8.568;2023-01-01T09:14:17;11.95;;;6.20;;
25846;SDS011;13676;50.168;8.568;2023-01-01T09:16:43;11.23;;;5.63;;
25846;SDS011;13676;50.168;8.568;2023-01-01T09:19:08;9.95;;;5.88;;
25846;SDS011;13676;50.168;8.568;2023-01-01T09:21:33;11.55;;;5.78;;
25846;SDS011;13676;50.168;8.568;2023-01-01T09:23:58;11.23;;;5.78;;
25846;SDS011;13676;50.168;8.568;2023-01-01T09:26:24;9.80;;;5.38;;
25846;SDS011;13676;50.168;8.568;2023-01-01T09:28:49;8.52;;;4.55;;
25846;SDS011;13676;50.168;8.568;2023-01-01T09:31:14;12.88;;;4.93;;
25846;SDS011;13676;50.168;8.568;2023-01-01T09:33:40;5.97;;;4.10;;
25846;SDS011;13676;50.168;8.568;2023-01-01T09:36:12;8.82;;;4.20;;
25846;SDS011;13676;50.168;8.568;2023-01-01T09:38:39;7.75;;;3.58;;
25846;SDS011;13676;50.168;8.568;2023-01-01T09:43:58;6.90;;;3.63;;
25846;SDS011;13676;50.168;8.568;2023-01-01T09:46:27;8.63;;;3.90;;
25846;SDS011;13676;50.168;8.568;2023-01-01T09:49:00;8.13;;;3.85;;
25846;SDS011;13676;50.168;8.568;2023-01-01T09:51:29;8.60;;;3.80;;
25846;SDS011;13676;50.168;8.568;2023-01-01T09:54:00;8.40;;;3.88;;
25846;SDS011;13676;50.168;8.568;2023-01-01T09:56:30;8.20;;;3.65;;
25846;SDS011;13676;50.168;8.568;2023-01-01T10:12:55;11.88;;;3.60;;
25846;SDS011;13676;50.168;8.568;2023-01-01T10:15:28;12.35;;;3.88;;
25846;SDS011;13676;50.168;8.568;2023-01-01T10:17:58;13.40;;;4.40;;
25846;SDS011;13676;50.168;8.568;2023-01-01T10:20:29;12.48;;;4.22;;
25846;SDS011;13676;50.168;8.568;2023-01-01T10:23:01;6.40;;;3.50;;
25846;SDS011;13676;50.168;8.568;2023-01-01T10:25:32;6.10;;;3.65;;
25846;SDS011;13676;50.168;8.568;2023-01-01T10:28:03;9.15;;;3.97;;
25846;SDS011;13676;50.168;8.568;2023-01-01T10:30:31;9.38;;;3.75;;
25846;SDS011;13676;50.168;8.568;2023-01-01T10:32:57;8.25;;;3.90;;
25846;SDS011;13676;50.168;8.568;2023-01-01T10:35:24;7.57;;;3.75;;
25846;SDS011;13676;50.168;8.568;2023-01-01T10:37:58;9.98;;;3.55;;
25846;SDS011;13676;50.168;8.568;2023-01-01T10:40:24;9.02;;;4.07;;
25846;SDS011;13676;50.168;8.568;2023-01-01T10:42:55;8.20;;;3.38;;
25846;SDS011;13676;50.168;8.568;2023-01-01T10:53:17;10.05;;;3.00;;
25846;SDS011;13676;50.168;8.568;2023-01-01T10:55:55;11.15;;;3.50;;
25846;SDS011;13676;50.168;8.568;2023-01-01T11:01:27;13.63;;;3.17;;
25846;SDS011;13676;50.168;8.568;2023-01-01T11:06:37;7.30;;;2.92;;
25846;SDS011;13676;50.168;8.568;2023-01-01T11:09:05;18.43;;;3.23;;
25846;SDS011;13676;50.168;8.568;2023-01-01T11:11:42;12.95;;;3.13;;
25846;SDS011;13676;50.168;8.568;2023-01-01T11:16:51;6.38;;;2.50;;
25846;SDS011;13676;50.168;8.568;2023-01-01T11:19:26;13.85;;;3.22;;
25846;SDS011;13676;50.168;8.568;2023-01-01T11:22:01;13.18;;;2.80;;
25846;SDS011;13676;50.168;8.568;2023-01-01T11:24:28;11.05;;;2.90;;
25846;SDS011;13676;50.168;8.568;2023-01-01T11:29:46;11.02;;;2.70;;
25846;SDS011;13676;50.168;8.568;2023-01-01T11:32:15;6.43;;;2.65;;
25846;SDS011;13676;50.168;8.568;2023-01-01T11:34:45;12.82;;;2.72;;
25846;SDS011;13676;50.168;8.568;2023-01-01T11:37:28;8.90;;;2.42;;
25846;SDS011;13676;50.168;8.568;2023-01-01T11:39:57;9.13;;;2.63;;
25846;SDS011;13676;50.168;8.568;2023-01-01T11:42:23;13.77;;;2.85;;
25846;SDS011;13676;50.168;8.568;2023-01-01T11:44:56;10.05;;;2.75;;
25846;SDS011;13676;50.168;8.568;2023-01-01T11:47:28;5.43;;;1.90;;
25846;SDS011;13676;50.168;8.568;2023-01-01T11:52:38;9.02;;;2.80;;
25846;SDS011;13676;50.168;8.568;2023-01-01T12:00:22;12.43;;;3.45;;
25846;SDS011;13676;50.168;8.568;2023-01-01T12:02:58;14.60;;;3.10;;
25846;SDS011;13676;50.168;8.568;2023-01-01T12:05:28;5.88;;;2.45;;
25846;SDS011;13676;50.168;8.568;2023-01-01T12:08:02;10.07;;;3.05;;
25846;SDS011;13676;50.168;8.568;2023-01-01T12:10:32;8.43;;;3.03;;
25846;SDS011;13676;50.168;8.568;2023-01-01T12:13:10;9.43;;;3.28;;
25846;SDS011;13676;50.168;8.568;2023-01-01T12:15:42;13.23;;;2.90;;
25846;SDS011;13676;50.168;8.568;2023-01-01T12:18:15;6.32;;;2.55;;
25846;SDS011;13676;50.168;8.568;2023-01-01T12:23:19;8.95;;;2.78;;
25846;SDS011;13676;50.168;8.568;2023-01-01T12:25:45;6.20;;;3.03;;
25846;SDS011;13676;50.168;8.568;2023-01-01T12:31:08;11.70;;;3.80;;
25846;SDS011;13676;50.168;8.568;2023-01-01T12:36:40;11.65;;;3.10;;
25846;SDS011;13676;50.168;8.568;2023-01-01T12:41:54;5.65;;;2.67;;
25846;SDS011;13676;50.168;8.568;2023-01-01T12:58:10;5.10;;;2.30;;
25846;SDS011;13676;50.168;8.568;2023-01-01T13:00:38;8.68;;;2.42;;
25846;SDS011;13676;50.168;8.568;2023-01-01T13:03:08;8.75;;;2.65;;
25846;SDS011;13676;50.168;8.568;2023-01-01T13:05:40;15.13;;;2.95;;
25846;SDS011;13676;50.168;8.568;2023-01-01T13:08:07;10.30;;;2.90;;
25846;SDS011;13676;50.168;8.568;2023-01-01T13:10:42;8.15;;;3.10;;
25846;SDS011;13676;50.168;8.568;2023-01-01T13:13:09;6.35;;;2.33;;
25846;SDS011;13676;50.168;8.568;2023-01-01T13:18:02;10.18;;;3.15;;
25846;SDS011;13676;50.168;8.568;2023-01-01T13:20:30;10.50;;;3.17;;
25846;SDS011;13676;50.168;8.568;2023-01-01T13:23:03;10.35;;;3.15;;
25846;SDS011;13676;50.168;8.568;2023-01-01T13:25:29;10.25;;;2.97;;
25846;SDS011;13676;50.168;8.568;2023-01-01T13:35:42;10.57;;;3.08;;
25846;SDS011;13676;50.168;8.568;2023-01-01T13:44:15;10.02;;;2.38;;
25846;SDS011;13676;50.168;8.568;2023-01-01T14:00:31;6.40;;;2.25;;
25846;SDS011;13676;50.168;8.568;2023-01-01T14:03:00;6.40;;;2.35;;
25846;SDS011;13676;50.168;8.568;2023-01-01T14:05:38;10.43;;;2.85;;
25846;SDS011;13676;50.168;8.568;2023-01-01T14:08:24;8.10;;;2.85;;
25846;SDS011;13676;50.168;8.568;2023-01-01T14:10:51;5.78;;;2.15;;
25846;SDS011;13676;50.168;8.568;2023-01-01T14:13:17;7.85;;;2.50;;
25846;SDS011;13676;50.168;8.568;2023-01-01T14:15:50;7.95;;;2.80;;
25846;SDS011;13676;50.168;8.568;2023-01-01T14:18:17;10.13;;;2.78;;
25846;SDS011;13676;50.168;8.568;2023-01-01T14:20:46;8.02;;;2.33;;
25846;SDS011;13676;50.168;8.568;2023-01-01T14:25:43;10.45;;;2.70;;
25846;SDS011;13676;50.168;8.568;2023-01-01T14:28:19;13.70;;;2.90;;
25846;SDS011;13676;50.168;8.568;2023-01-01T14:30:48;16.75;;;3.17;;
25846;SDS011;13676;50.168;8.568;2023-01-01T14:33:47;6.93;;;3.25;;
25846;SDS011;13676;50.168;8.568;2023-01-01T14:36:47;9.27;;;2.55;;
25846;SDS011;13676;50.168;8.568;2023-01-01T14:38:58;11.80;;;3.22;;
25846;SDS011;13676;50.168;8.568;2023-01-01T14:43:57;12.55;;;3.03;;
25846;SDS011;13676;50.168;8.568;2023-01-01T14:46:27;6.82;;;3.10;;
25846;SDS011;13676;50.168;8.568;2023-01-01T14:48:57;10.77;;;3.33;;
25846;SDS011;13676;50.168;8.568;2023-01-01T14:51:26;11.38;;;3.20;;
25846;SDS011;13676;50.168;8.568;2023-01-01T14:53:53;8.88;;;3.00;;
25846;SDS011;13676;50.168;8.568;2023-01-01T14:56:24;5.60;;;3.10;;
25846;SDS011;13676;50.168;8.568;2023-01-01T14:58:51;14.68;;;4.38;;
25846;SDS011;13676;50.168;8.568;2023-01-01T15:01:24;9.68;;;4.15;;
25846;SDS011;13676;50.168;8.568;2023-01-01T15:03:54;8.82;;;2.97;;
25846;SDS011;13676;50.168;8.568;2023-01-01T15:06:21;7.35;;;3.47;;
25846;SDS011;13676;50.168;8.568;2023-01-01T15:08:48;10.23;;;3.58;;
25846;SDS011;13676;50.168;8.568;2023-01-01T15:13:40;11.13;;;3.30;;
25846;SDS011;13676;50.168;8.568;2023-01-01T15:16:15;7.65;;;2.70;;
25846;SDS011;13676;50.168;8.568;2023-01-01T15:18:43;7.13;;;3.08;;
25846;SDS011;13676;50.168;8.568;2023-01-01T15:26:29;7.93;;;3.38;;
25846;SDS011;13676;50.168;8.568;2023-01-01T15:28:58;12.00;;;3.20;;
25846;SDS011;13676;50.168;8.568;2023-01-01T15:31:32;16.27;;;4.35;;
25846;SDS011;13676;50.168;8.568;2023-01-01T15:33:59;16.83;;;4.13;;
25846;SDS011;13676;50.168;8.568;2023-01-01T15:36:24;15.30;;;4.38;;
25846;SDS011;13676;50.168;8.568;2023-01-01T15:38:49;15.45;;;4.57;;
25846;SDS011;13676;50.168;8.568;2023-01-01T15:41:22;17.85;;;4.30;;
25846;SDS011;13676;50.168;8.568;2023-01-01T15:46:52;13.70;;;4.15;;
25846;SDS011;13676;50.168;8.568;2023-01-01T15:51:58;11.25;;;3.47;;
25846;SDS011;13676;50.168;8.568;2023-01-01T15:54:26;17.77;;;6.03;;
25846;SDS011;13676;50.168;8.568;2023-01-01T15:56:52;10.63;;;5.03;;
25846;SDS011;13676;50.168;8.568;2023-01-01T16:01:47;11.38;;;6.85;;
25846;SDS011;13676;50.168;8.568;2023-01-01T16:06:45;18.08;;;9.82;;
25846;SDS011;13676;50.168;8.568;2023-01-01T16:09:13;19.85;;;9.05;;
25846;SDS011;13676;50.168;8.568;2023-01-01T16:11:40;16.80;;;7.97;;
25846;SDS011;13676;50.168;8.568;2023-01-01T16:14:05;13.65;;;7.35;;
25846;SDS011;13676;50.168;8.568;2023-01-01T16:16:45;12.38;;;7.05;;
25846;SDS011;13676;50.168;8.568;2023-01-01T16:19:30;10.02;;;5.75;;
25846;SDS011;13676;50.168;8.568;2023-01-01T16:21:56;14.13;;;7.38;;
25846;SDS011;13676;50.168;8.568;2023-01-01T16:24:22;19.20;;;10.95;;
25846;SDS011;13676;50.168;8.568;2023-01-01T16:26:51;15.38;;;9.32;;
25846;SDS011;13676;50.168;8.568;2023-01-01T16:29:17;17.38;;;10.23;;
25846;SDS011;13676;50.168;8.568;2023-01-01T16:31:42;13.52;;;8.45;;
25846;SDS011;13676;50.168;8.568;2023-01-01T16:34:10;12.65;;;7.78;;
25846;SDS011;13676;50.168;8.568;2023-01-01T16:36:39;15.45;;;6.90;;
25846;SDS011;13676;50.168;8.568;2023-01-01T16:39:05;11.00;;;6.32;;
25846;SDS011;13676;50.168;8.568;2023-01-01T16:41:31;10.50;;;6.57;;
25846;SDS011;13676;50.168;8.568;2023-01-01T16:43:56;11.57;;;5.95;;
25846;SDS011;13676;50.168;8.568;2023-01-01T16:46:25;13.20;;;7.35;;
25846;SDS011;13676;50.168;8.568;2023-01-01T16:48:51;15.13;;;7.50;;
25846;SDS011;13676;50.168;8.568;2023-01-01T16:51:18;14.18;;;7.10;;
25846;SDS011;13676;50.168;8.568;2023-01-01T16:53:45;19.55;;;7.05;;
25846;SDS011;13676;50.168;8.568;2023-01-01T16:56:11;16.75;;;7.32;;
25846;SDS011;13676;50.168;8.568;2023-01-01T16:58:40;18.13;;;6.32;;
25846;SDS011;13676;50.168;8.568;2023-01-01T17:01:09;9.45;;;5.55;;
25846;SDS011;13676;50.168;8.568;2023-01-01T17:03:34;12.70;;;5.60;;
25846;SDS011;13676;50.168;8.568;2023-01-01T17:06:04;13.05;;;4.93;;
25846;SDS011;13676;50.168;8.568;2023-01-01T17:08:33;11.48;;;4.90;;
25846;SDS011;13676;50.168;8.568;2023-01-01T17:11:02;12.63;;;4.07;;
25846;SDS011;13676;50.168;8.568;2023-01-01T17:13:29;8.10;;;3.70;;
25846;SDS011;13676;50.168;8.568;2023-01-01T17:15:55;10.80;;;4.13;;